PWSweather.com
Personal Weather Stations
Station Observations
KCTCOLEB1
Sandy Brook, Colebrook, CT 06021

Sandy BrookColebrook, CT 06021

Lat: 42.0018, Lon: -73.0825

Elevation: 935

Station Type: Davis Vantage Pro2 + Solar + UV

High Low Average
Temperature 17.9°F-7.8°C -10.9°F-23.8°C 2.2°F-16.6°C
Dew Point 5.0°F-15.0°C -14.7°F-25.9°C -4.1°F-20.1°C
Winds 3.5 mph 5.6 kmh Calm Calm 1.0 mph S1.6 kmh S
Wind Gusts 6.9 mph11.1 kmh -- 2.0 mph3.2 kmh
Humidity 91% 52% 76%
Pressure 30.45 in1031.2 mb 30.35 in1027.8 mb -
Precipitation 0.00 in0.0 mm - -
Hour Temp Dew Point Humidity Winds Wind Gusts Pressure Precip Precip Rate Daily Precip Total
12:00 AM -3.0°F-19.4°C -6.9°F-21.6°C 83% Calm Calm -- 30.37 in1028.4 mb - 0.00 in0.0 mm 0.00 in0.0 mm
12:10 AM -3.3°F-19.6°C -7.2°F-21.8°C 83% Calm Calm -- 30.37 in1028.4 mb - 0.00 in0.0 mm 0.00 in0.0 mm
12:20 AM -3.7°F-19.8°C -7.6°F-22.0°C 83% Calm Calm 1.2 mph1.9 kmh 30.38 in1028.8 mb - 0.00 in0.0 mm 0.00 in0.0 mm
12:30 AM -4.0°F-20.0°C -7.9°F-22.2°C 83% Calm Calm 1.2 mph1.9 kmh 30.38 in1028.8 mb - 0.00 in0.0 mm 0.00 in0.0 mm
12:40 AM -4.3°F-20.2°C -8.2°F-22.3°C 83% Calm Calm -- 30.38 in1028.8 mb - 0.00 in0.0 mm 0.00 in0.0 mm
12:50 AM -4.6°F-20.3°C -8.4°F-22.4°C 83% Calm Calm 1.2 mph1.9 kmh 30.38 in1028.8 mb - 0.00 in0.0 mm 0.00 in0.0 mm
01:00 AM -4.8°F-20.4°C -8.6°F-22.6°C 83% Calm Calm -- 30.39 in1029.1 mb - 0.00 in0.0 mm 0.00 in0.0 mm
01:10 AM -5.0°F-20.6°C -8.6°F-22.6°C 84% Calm Calm 1.2 mph1.9 kmh 30.39 in1029.1 mb - 0.00 in0.0 mm 0.00 in0.0 mm
01:20 AM -5.2°F-20.7°C -8.8°F-22.7°C 84% Calm Calm 1.2 mph1.9 kmh 30.39 in1029.1 mb - 0.00 in0.0 mm 0.00 in0.0 mm
01:30 AM -5.3°F-20.7°C -8.9°F-22.7°C 84% 1.2 mph NE1.9 kmh NE 1.2 mph1.9 kmh 30.39 in1029.1 mb - 0.00 in0.0 mm 0.00 in0.0 mm
01:40 AM -5.2°F-20.7°C -8.6°F-22.6°C 85% 1.2 mph NE1.9 kmh NE 1.2 mph1.9 kmh 30.39 in1029.1 mb - 0.00 in0.0 mm 0.00 in0.0 mm
01:50 AM -5.2°F-20.7°C -8.6°F-22.6°C 85% Calm Calm -- 30.39 in1029.1 mb - 0.00 in0.0 mm 0.00 in0.0 mm
02:00 AM -5.2°F-20.7°C -8.6°F-22.6°C 85% Calm Calm 1.2 mph1.9 kmh 30.39 in1029.1 mb - 0.00 in0.0 mm 0.00 in0.0 mm
02:10 AM -5.2°F-20.7°C -8.6°F-22.6°C 85% Calm Calm 1.2 mph1.9 kmh 30.39 in1029.1 mb - 0.00 in0.0 mm 0.00 in0.0 mm
02:20 AM -5.2°F-20.7°C -8.6°F-22.6°C 85% Calm Calm 1.2 mph1.9 kmh 30.39 in1029.1 mb - 0.00 in0.0 mm 0.00 in0.0 mm
02:30 AM -5.2°F-20.7°C -8.3°F-22.4°C 86% Calm Calm 1.2 mph1.9 kmh 30.39 in1029.1 mb - 0.00 in0.0 mm 0.00 in0.0 mm
02:40 AM -5.3°F-20.7°C -8.6°F-22.6°C 85% 1.2 mph NE1.9 kmh NE 1.2 mph1.9 kmh 30.39 in1029.1 mb - 0.00 in0.0 mm 0.00 in0.0 mm
02:50 AM -5.4°F-20.8°C -8.7°F-22.6°C 85% 1.2 mph NE1.9 kmh NE 1.2 mph1.9 kmh 30.39 in1029.1 mb - 0.00 in0.0 mm 0.00 in0.0 mm
03:00 AM -5.5°F-20.8°C -8.8°F-22.7°C 85% Calm Calm 1.2 mph1.9 kmh 30.40 in1029.5 mb - 0.00 in0.0 mm 0.00 in0.0 mm
03:10 AM -5.6°F-20.9°C -8.9°F-22.7°C 85% Calm Calm 1.2 mph1.9 kmh 30.39 in1029.1 mb - 0.00 in0.0 mm 0.00 in0.0 mm
03:20 AM -5.7°F-20.9°C -9.1°F-22.8°C 85% 1.2 mph NE1.9 kmh NE 1.2 mph1.9 kmh 30.40 in1029.5 mb - 0.00 in0.0 mm 0.00 in0.0 mm
03:30 AM -5.9°F-21.1°C -9.5°F-23.1°C 84% 1.2 mph NE1.9 kmh NE 1.2 mph1.9 kmh 30.40 in1029.5 mb - 0.00 in0.0 mm 0.00 in0.0 mm
03:40 AM -6.1°F-21.2°C -9.7°F-23.2°C 84% 1.2 mph NE1.9 kmh NE 1.2 mph1.9 kmh 30.40 in1029.5 mb - 0.00 in0.0 mm 0.00 in0.0 mm
03:50 AM -6.3°F-21.3°C -9.9°F-23.3°C 84% Calm Calm 2.3 mph3.7 kmh 30.40 in1029.5 mb - 0.00 in0.0 mm 0.00 in0.0 mm
04:00 AM -6.6°F-21.4°C -10.2°F-23.4°C 84% Calm Calm 1.2 mph1.9 kmh 30.40 in1029.5 mb - 0.00 in0.0 mm 0.00 in0.0 mm
04:10 AM -6.8°F-21.6°C -10.4°F-23.6°C 84% 1.2 mph NE1.9 kmh NE 2.3 mph3.7 kmh 30.41 in1029.8 mb - 0.00 in0.0 mm 0.00 in0.0 mm
04:20 AM -7.0°F-21.7°C -10.6°F-23.7°C 84% 1.2 mph NE1.9 kmh NE 2.3 mph3.7 kmh 30.41 in1029.8 mb - 0.00 in0.0 mm 0.00 in0.0 mm
04:30 AM -7.3°F-21.8°C -10.8°F-23.8°C 84% 1.2 mph NE1.9 kmh NE 2.3 mph3.7 kmh 30.41 in1029.8 mb - 0.00 in0.0 mm 0.00 in0.0 mm
04:40 AM -7.6°F-22.0°C -11.4°F-24.1°C 83% 1.2 mph NE1.9 kmh NE 2.3 mph3.7 kmh 30.41 in1029.8 mb - 0.00 in0.0 mm 0.00 in0.0 mm
04:50 AM -7.8°F-22.1°C -11.3°F-24.1°C 84% 1.2 mph NE1.9 kmh NE 2.3 mph3.7 kmh 30.41 in1029.8 mb - 0.00 in0.0 mm 0.00 in0.0 mm
05:00 AM -8.1°F-22.3°C -11.9°F-24.4°C 83% 1.2 mph NE1.9 kmh NE 2.3 mph3.7 kmh 30.41 in1029.8 mb - 0.00 in0.0 mm 0.00 in0.0 mm
05:10 AM -8.3°F-22.4°C -12.1°F-24.5°C 83% 1.2 mph NE1.9 kmh NE 1.2 mph1.9 kmh 30.41 in1029.8 mb - 0.00 in0.0 mm 0.00 in0.0 mm
05:20 AM -8.5°F-22.5°C -12.3°F-24.6°C 83% Calm Calm 1.2 mph1.9 kmh 30.41 in1029.8 mb - 0.00 in0.0 mm 0.00 in0.0 mm
05:30 AM -8.7°F-22.6°C -12.5°F-24.7°C 83% Calm Calm 2.3 mph3.7 kmh 30.41 in1029.8 mb - 0.00 in0.0 mm 0.00 in0.0 mm
05:40 AM -8.9°F-22.7°C -12.7°F-24.8°C 83% Calm Calm 1.2 mph1.9 kmh 30.42 in1030.1 mb - 0.00 in0.0 mm 0.00 in0.0 mm
05:50 AM -9.1°F-22.8°C -12.9°F-24.9°C 83% Calm Calm 1.2 mph1.9 kmh 30.42 in1030.1 mb - 0.00 in0.0 mm 0.00 in0.0 mm
06:00 AM -9.3°F-22.9°C -13.1°F-25.1°C 83% Calm Calm 1.2 mph1.9 kmh 30.42 in1030.1 mb - 0.00 in0.0 mm 0.00 in0.0 mm
06:10 AM -9.4°F-23.0°C -13.2°F-25.1°C 83% Calm Calm 1.2 mph1.9 kmh 30.42 in1030.1 mb - 0.00 in0.0 mm 0.00 in0.0 mm
06:20 AM -9.6°F-23.1°C -13.4°F-25.2°C 83% Calm Calm 1.2 mph1.9 kmh 30.42 in1030.1 mb - 0.00 in0.0 mm 0.00 in0.0 mm
06:30 AM -9.8°F-23.2°C -13.6°F-25.3°C 83% Calm Calm 1.2 mph1.9 kmh 30.42 in1030.1 mb - 0.00 in0.0 mm 0.00 in0.0 mm
06:40 AM -10.0°F-23.3°C -13.7°F-25.4°C 83% Calm Calm 1.2 mph1.9 kmh 30.42 in1030.1 mb - 0.00 in0.0 mm 0.00 in0.0 mm
06:50 AM -10.3°F-23.5°C -14.0°F-25.6°C 83% Calm Calm 1.2 mph1.9 kmh 30.43 in1030.5 mb - 0.00 in0.0 mm 0.00 in0.0 mm
07:00 AM -10.6°F-23.7°C -14.3°F-25.7°C 83% Calm Calm 1.2 mph1.9 kmh 30.42 in1030.1 mb - 0.00 in0.0 mm 0.00 in0.0 mm
07:10 AM -10.8°F-23.8°C -14.5°F-25.8°C 83% Calm Calm 1.2 mph1.9 kmh 30.43 in1030.5 mb - 0.00 in0.0 mm 0.00 in0.0 mm
07:20 AM -10.9°F-23.8°C -14.6°F-25.9°C 83% Calm Calm -- 30.43 in1030.5 mb - 0.00 in0.0 mm 0.00 in0.0 mm
07:30 AM -10.9°F-23.8°C -14.7°F-25.9°C 83% Calm Calm 1.2 mph1.9 kmh 30.43 in1030.5 mb - 0.00 in0.0 mm 0.00 in0.0 mm
07:40 AM -10.9°F-23.8°C -14.6°F-25.9°C 83% Calm Calm -- 30.44 in1030.8 mb - 0.00 in0.0 mm 0.00 in0.0 mm
07:50 AM -10.8°F-23.8°C -14.3°F-25.7°C 84% Calm Calm -- 30.44 in1030.8 mb - 0.00 in0.0 mm 0.00 in0.0 mm
08:00 AM -10.7°F-23.7°C -14.1°F-25.6°C 84% Calm Calm -- 30.44 in1030.8 mb - 0.00 in0.0 mm 0.00 in0.0 mm
08:10 AM -10.3°F-23.5°C -13.6°F-25.3°C 85% Calm Calm -- 30.45 in1031.2 mb - 0.00 in0.0 mm 0.00 in0.0 mm
08:20 AM -9.9°F-23.3°C -13.2°F-25.1°C 85% Calm Calm -- 30.45 in1031.2 mb - 0.00 in0.0 mm 0.00 in0.0 mm
08:30 AM -9.3°F-22.9°C -12.3°F-24.6°C 86% Calm Calm -- 30.45 in1031.2 mb - 0.00 in0.0 mm 0.00 in0.0 mm
08:40 AM -8.6°F-22.6°C -11.4°F-24.1°C 87% Calm Calm -- 30.45 in1031.2 mb - 0.00 in0.0 mm 0.00 in0.0 mm
08:50 AM -7.7°F-22.1°C -10.5°F-23.6°C 87% Calm Calm -- 30.45 in1031.2 mb - 0.00 in0.0 mm 0.00 in0.0 mm
09:00 AM -6.6°F-21.4°C -9.2°F-22.9°C 88% Calm Calm -- 30.45 in1031.2 mb - 0.00 in0.0 mm 0.00 in0.0 mm
09:10 AM -5.4°F-20.8°C -7.8°F-22.1°C 89% Calm Calm -- 30.45 in1031.2 mb - 0.00 in0.0 mm 0.00 in0.0 mm
09:20 AM -4.3°F-20.2°C -6.7°F-21.5°C 89% Calm Calm -- 30.44 in1030.8 mb - 0.00 in0.0 mm 0.00 in0.0 mm
09:30 AM -2.1°F-18.9°C -4.3°F-20.2°C 90% Calm Calm 1.2 mph1.9 kmh 30.45 in1031.2 mb - 0.00 in0.0 mm 0.00 in0.0 mm
09:40 AM 0.4°F-17.6°C -1.6°F-18.7°C 91% Calm Calm 1.2 mph1.9 kmh 30.45 in1031.2 mb - 0.00 in0.0 mm 0.00 in0.0 mm
09:50 AM 2.7°F-16.3°C 0.4°F-17.6°C 90% Calm Calm 1.2 mph1.9 kmh 30.45 in1031.2 mb - 0.00 in0.0 mm 0.00 in0.0 mm
10:00 AM 4.6°F-15.2°C 2.1°F-16.6°C 89% Calm Calm 1.2 mph1.9 kmh 30.45 in1031.2 mb - 0.00 in0.0 mm 0.00 in0.0 mm
10:10 AM 6.7°F-14.1°C 3.4°F-15.9°C 86% 1.2 mph NNW1.9 kmh NNW 3.5 mph5.6 kmh 30.45 in1031.2 mb - 0.00 in0.0 mm 0.00 in0.0 mm
10:20 AM 8.7°F-12.9°C 2.4°F-16.4°C 75% 1.2 mph NW1.9 kmh NW 3.5 mph5.6 kmh 30.45 in1031.2 mb - 0.00 in0.0 mm 0.00 in0.0 mm
10:30 AM 10.5°F-11.9°C 2.6°F-16.3°C 70% 1.2 mph NNE1.9 kmh NNE 3.5 mph5.6 kmh 30.45 in1031.2 mb - 0.00 in0.0 mm 0.00 in0.0 mm
10:40 AM 11.8°F-11.2°C 1.7°F-16.8°C 63% 3.5 mph N5.6 kmh N 4.6 mph7.4 kmh 30.44 in1030.8 mb - 0.00 in0.0 mm 0.00 in0.0 mm
10:50 AM 12.4°F-10.9°C 1.5°F-16.9°C 61% 2.3 mph N3.7 kmh N 3.5 mph5.6 kmh 30.44 in1030.8 mb - 0.00 in0.0 mm 0.00 in0.0 mm
11:00 AM 12.8°F-10.7°C 1.1°F-17.2°C 59% 1.2 mph W1.9 kmh W 2.3 mph3.7 kmh 30.43 in1030.5 mb - 0.00 in0.0 mm 0.00 in0.0 mm
11:10 AM 13.3°F-10.4°C 2.0°F-16.7°C 60% 1.2 mph N1.9 kmh N 3.5 mph5.6 kmh 30.43 in1030.5 mb - 0.00 in0.0 mm 0.00 in0.0 mm
11:20 AM 14.0°F-10.0°C 3.4°F-15.9°C 62% 2.3 mph NNE3.7 kmh NNE 3.5 mph5.6 kmh 30.43 in1030.5 mb - 0.00 in0.0 mm 0.00 in0.0 mm
11:30 AM 14.8°F-9.6°C 4.1°F-15.5°C 62% 1.2 mph N1.9 kmh N 3.5 mph5.6 kmh 30.42 in1030.1 mb - 0.00 in0.0 mm 0.00 in0.0 mm
11:40 AM 15.3°F-9.3°C 3.9°F-15.6°C 60% 2.3 mph N3.7 kmh N 2.3 mph3.7 kmh 30.42 in1030.1 mb - 0.00 in0.0 mm 0.00 in0.0 mm
11:50 AM 15.8°F-9.0°C 4.0°F-15.6°C 59% 2.3 mph NE3.7 kmh NE 4.6 mph7.4 kmh 30.42 in1030.1 mb - 0.00 in0.0 mm 0.00 in0.0 mm
12:00 PM 16.0°F-8.9°C 4.5°F-15.3°C 60% 1.2 mph NE1.9 kmh NE 3.5 mph5.6 kmh 30.41 in1029.8 mb - 0.00 in0.0 mm 0.00 in0.0 mm
12:10 PM 17.1°F-8.3°C 4.5°F-15.3°C 57% 1.2 mph NE1.9 kmh NE 3.5 mph5.6 kmh 30.41 in1029.8 mb - 0.00 in0.0 mm 0.00 in0.0 mm
12:20 PM 17.3°F-8.2°C 4.3°F-15.4°C 56% 2.3 mph N3.7 kmh N 2.3 mph3.7 kmh 30.40 in1029.5 mb - 0.00 in0.0 mm 0.00 in0.0 mm
12:30 PM 17.3°F-8.2°C 4.3°F-15.4°C 56% 1.2 mph N1.9 kmh N 3.5 mph5.6 kmh 30.39 in1029.1 mb - 0.00 in0.0 mm 0.00 in0.0 mm
12:40 PM 16.7°F-8.5°C 3.7°F-15.7°C 56% 2.3 mph W3.7 kmh W 3.5 mph5.6 kmh 30.39 in1029.1 mb - 0.00 in0.0 mm 0.00 in0.0 mm
12:50 PM 16.9°F-8.4°C 5.0°F-15.0°C 59% 1.2 mph N1.9 kmh N 1.2 mph1.9 kmh 30.39 in1029.1 mb - 0.00 in0.0 mm 0.00 in0.0 mm
01:00 PM 17.7°F-7.9°C 4.6°F-15.2°C 56% 2.3 mph N3.7 kmh N 3.5 mph5.6 kmh 30.39 in1029.1 mb - 0.00 in0.0 mm 0.00 in0.0 mm
01:10 PM 17.7°F-7.9°C 4.2°F-15.4°C 55% 1.2 mph NNE1.9 kmh NNE 3.5 mph5.6 kmh 30.38 in1028.8 mb - 0.00 in0.0 mm 0.00 in0.0 mm
01:20 PM 17.9°F-7.8°C 4.4°F-15.3°C 55% 1.2 mph WNW1.9 kmh WNW 3.5 mph5.6 kmh 30.38 in1028.8 mb - 0.00 in0.0 mm 0.00 in0.0 mm
01:30 PM 17.7°F-7.9°C 3.9°F-15.6°C 54% 3.5 mph NNE5.6 kmh NNE 3.5 mph5.6 kmh 30.38 in1028.8 mb - 0.00 in0.0 mm 0.00 in0.0 mm
01:40 PM 17.5°F-8.1°C 3.6°F-15.8°C 54% 1.2 mph NNE1.9 kmh NNE 3.5 mph5.6 kmh 30.37 in1028.4 mb - 0.00 in0.0 mm 0.00 in0.0 mm
01:50 PM 17.7°F-7.9°C 4.2°F-15.4°C 55% 1.2 mph N1.9 kmh N 2.3 mph3.7 kmh 30.37 in1028.4 mb - 0.00 in0.0 mm 0.00 in0.0 mm
02:00 PM 17.6°F-8.0°C 2.9°F-16.2°C 52% 2.3 mph ENE3.7 kmh ENE 6.9 mph11.1 kmh 30.36 in1028.1 mb - 0.00 in0.0 mm 0.00 in0.0 mm
02:10 PM 16.9°F-8.4°C 3.5°F-15.8°C 55% 2.3 mph ENE3.7 kmh ENE 3.5 mph5.6 kmh 30.36 in1028.1 mb - 0.00 in0.0 mm 0.00 in0.0 mm
02:20 PM 16.6°F-8.6°C 2.4°F-16.4°C 53% 2.3 mph NE3.7 kmh NE 3.5 mph5.6 kmh 30.36 in1028.1 mb - 0.00 in0.0 mm 0.00 in0.0 mm
02:30 PM 16.5°F-8.6°C 2.3°F-16.5°C 53% 2.3 mph S3.7 kmh S 3.5 mph5.6 kmh 30.36 in1028.1 mb - 0.00 in0.0 mm 0.00 in0.0 mm
02:40 PM 16.3°F-8.7°C 2.9°F-16.2°C 55% 1.2 mph N1.9 kmh N 2.3 mph3.7 kmh 30.35 in1027.8 mb - 0.00 in0.0 mm 0.00 in0.0 mm
02:50 PM 16.2°F-8.8°C 2.0°F-16.7°C 53% Calm Calm 1.2 mph1.9 kmh 30.35 in1027.8 mb - 0.00 in0.0 mm 0.00 in0.0 mm
03:00 PM 16.1°F-8.8°C 3.1°F-16.1°C 56% 2.3 mph N3.7 kmh N 3.5 mph5.6 kmh 30.35 in1027.8 mb - 0.00 in0.0 mm 0.00 in0.0 mm
03:10 PM 16.0°F-8.9°C 3.0°F-16.1°C 56% 2.3 mph N3.7 kmh N 3.5 mph5.6 kmh 30.35 in1027.8 mb - 0.00 in0.0 mm 0.00 in0.0 mm
03:20 PM 15.8°F-9.0°C 2.5°F-16.4°C 55% 1.2 mph W1.9 kmh W 1.2 mph1.9 kmh 30.35 in1027.8 mb - 0.00 in0.0 mm 0.00 in0.0 mm
03:30 PM 15.7°F-9.1°C 2.4°F-16.4°C 55% 1.2 mph S1.9 kmh S 2.3 mph3.7 kmh 30.35 in1027.8 mb - 0.00 in0.0 mm 0.00 in0.0 mm
03:40 PM 15.6°F-9.1°C 2.6°F-16.3°C 56% 2.3 mph N3.7 kmh N 3.5 mph5.6 kmh 30.35 in1027.8 mb - 0.00 in0.0 mm 0.00 in0.0 mm
03:50 PM 15.5°F-9.2°C 3.0°F-16.1°C 57% 1.2 mph NE1.9 kmh NE 2.3 mph3.7 kmh 30.35 in1027.8 mb - 0.00 in0.0 mm 0.00 in0.0 mm
04:00 PM 15.4°F-9.2°C 2.9°F-16.2°C 57% 1.2 mph NNW1.9 kmh NNW 2.3 mph3.7 kmh 30.35 in1027.8 mb - 0.00 in0.0 mm 0.00 in0.0 mm
04:10 PM 15.2°F-9.3°C 3.8°F-15.7°C 60% 1.2 mph N1.9 kmh N 1.2 mph1.9 kmh 30.35 in1027.8 mb - 0.00 in0.0 mm 0.00 in0.0 mm
04:20 PM 14.8°F-9.6°C 4.1°F-15.5°C 62% Calm Calm 1.2 mph1.9 kmh 30.36 in1028.1 mb - 0.00 in0.0 mm 0.00 in0.0 mm
04:30 PM 14.3°F-9.8°C 4.7°F-15.2°C 65% Calm Calm -- 30.35 in1027.8 mb - 0.00 in0.0 mm 0.00 in0.0 mm
04:40 PM 13.9°F-10.1°C 5.0°F-15.0°C 67% Calm Calm 1.2 mph1.9 kmh 30.36 in1028.1 mb - 0.00 in0.0 mm 0.00 in0.0 mm
04:50 PM 13.4°F-10.3°C 4.8°F-15.1°C 68% Calm Calm 2.3 mph3.7 kmh 30.36 in1028.1 mb - 0.00 in0.0 mm 0.00 in0.0 mm
05:00 PM 12.8°F-10.7°C 4.2°F-15.4°C 68% Calm Calm -- 30.36 in1028.1 mb - 0.00 in0.0 mm 0.00 in0.0 mm
05:10 PM 12.3°F-10.9°C 3.7°F-15.7°C 68% Calm Calm 1.2 mph1.9 kmh 30.36 in1028.1 mb - 0.00 in0.0 mm 0.00 in0.0 mm
05:20 PM 11.6°F-11.3°C 3.4°F-15.9°C 69% Calm Calm -- 30.36 in1028.1 mb - 0.00 in0.0 mm 0.00 in0.0 mm
05:30 PM 10.9°F-11.7°C 2.8°F-16.2°C 69% Calm Calm -- 30.36 in1028.1 mb - 0.00 in0.0 mm 0.00 in0.0 mm
05:40 PM 10.1°F-12.2°C 1.9°F-16.7°C 69% Calm Calm -- 30.36 in1028.1 mb - 0.00 in0.0 mm 0.00 in0.0 mm
05:50 PM 9.4°F-12.6°C 1.9°F-16.7°C 71% Calm Calm 1.2 mph1.9 kmh 30.36 in1028.1 mb - 0.00 in0.0 mm 0.00 in0.0 mm
06:00 PM 8.7°F-12.9°C 1.2°F-17.1°C 71% 1.2 mph N1.9 kmh N 2.3 mph3.7 kmh 30.37 in1028.4 mb - 0.00 in0.0 mm 0.00 in0.0 mm
06:10 PM 8.1°F-13.3°C 0.9°F-17.3°C 72% Calm Calm 1.2 mph1.9 kmh 30.37 in1028.4 mb - 0.00 in0.0 mm 0.00 in0.0 mm
06:20 PM 7.4°F-13.7°C 0.9°F-17.3°C 74% Calm Calm 1.2 mph1.9 kmh 30.36 in1028.1 mb - 0.00 in0.0 mm 0.00 in0.0 mm
06:30 PM 6.7°F-14.1°C 0.2°F-17.7°C 74% 1.2 mph N1.9 kmh N 2.3 mph3.7 kmh 30.37 in1028.4 mb - 0.00 in0.0 mm 0.00 in0.0 mm
06:40 PM 6.1°F-14.4°C -0.2°F-17.9°C 75% Calm Calm 1.2 mph1.9 kmh 30.37 in1028.4 mb - 0.00 in0.0 mm 0.00 in0.0 mm
06:50 PM 5.5°F-14.7°C -0.2°F-17.9°C 77% 1.2 mph N1.9 kmh N 2.3 mph3.7 kmh 30.38 in1028.8 mb - 0.00 in0.0 mm 0.00 in0.0 mm
07:00 PM 5.0°F-15.0°C -0.4°F-18.0°C 78% Calm Calm 1.2 mph1.9 kmh 30.38 in1028.8 mb - 0.00 in0.0 mm 0.00 in0.0 mm
07:10 PM 4.3°F-15.4°C -1.0°F-18.3°C 78% Calm Calm 1.2 mph1.9 kmh 30.38 in1028.8 mb - 0.00 in0.0 mm 0.00 in0.0 mm
07:20 PM 3.9°F-15.6°C -1.2°F-18.4°C 79% 1.2 mph N1.9 kmh N 2.3 mph3.7 kmh 30.38 in1028.8 mb - 0.00 in0.0 mm 0.00 in0.0 mm
07:30 PM 3.4°F-15.9°C -1.7°F-18.7°C 79% 1.2 mph N1.9 kmh N 1.2 mph1.9 kmh 30.39 in1029.1 mb - 0.00 in0.0 mm 0.00 in0.0 mm
07:40 PM 2.9°F-16.2°C -1.9°F-18.8°C 80% 1.2 mph N1.9 kmh N 1.2 mph1.9 kmh 30.38 in1028.8 mb - 0.00 in0.0 mm 0.00 in0.0 mm
07:50 PM 2.4°F-16.4°C -2.4°F-19.1°C 80% Calm Calm 1.2 mph1.9 kmh 30.39 in1029.1 mb - 0.00 in0.0 mm 0.00 in0.0 mm
08:00 PM 1.9°F-16.7°C -2.6°F-19.2°C 81% 1.2 mph N1.9 kmh N 1.2 mph1.9 kmh 30.39 in1029.1 mb - 0.00 in0.0 mm 0.00 in0.0 mm
08:10 PM 1.5°F-16.9°C -3.0°F-19.4°C 81% 1.2 mph N1.9 kmh N 1.2 mph1.9 kmh 30.39 in1029.1 mb - 0.00 in0.0 mm 0.00 in0.0 mm
08:20 PM 1.1°F-17.2°C -3.1°F-19.5°C 82% 1.2 mph N1.9 kmh N 2.3 mph3.7 kmh 30.39 in1029.1 mb - 0.00 in0.0 mm 0.00 in0.0 mm
08:30 PM 0.7°F-17.4°C -3.5°F-19.7°C 82% 1.2 mph N1.9 kmh N 1.2 mph1.9 kmh 30.39 in1029.1 mb - 0.00 in0.0 mm 0.00 in0.0 mm
08:40 PM 0.3°F-17.6°C -3.9°F-19.9°C 82% 1.2 mph N1.9 kmh N 2.3 mph3.7 kmh 30.39 in1029.1 mb - 0.00 in0.0 mm 0.00 in0.0 mm
08:50 PM -0.2°F-17.9°C -4.4°F-20.2°C 82% Calm Calm 1.2 mph1.9 kmh 30.39 in1029.1 mb - 0.00 in0.0 mm 0.00 in0.0 mm
09:00 PM -0.7°F-18.2°C -4.9°F-20.5°C 82% Calm Calm 1.2 mph1.9 kmh 30.38 in1028.8 mb - 0.00 in0.0 mm 0.00 in0.0 mm
09:10 PM -1.1°F-18.4°C -5.3°F-20.7°C 82% 1.2 mph N1.9 kmh N 1.2 mph1.9 kmh 30.38 in1028.8 mb - 0.00 in0.0 mm 0.00 in0.0 mm
09:20 PM -1.5°F-18.6°C -5.4°F-20.8°C 83% Calm Calm 1.2 mph1.9 kmh 30.38 in1028.8 mb - 0.00 in0.0 mm 0.00 in0.0 mm
09:30 PM -1.9°F-18.8°C -5.8°F-21.0°C 83% 1.2 mph N1.9 kmh N 1.2 mph1.9 kmh 30.38 in1028.8 mb - 0.00 in0.0 mm 0.00 in0.0 mm
09:40 PM -2.3°F-19.1°C -6.2°F-21.2°C 83% 1.2 mph N1.9 kmh N 2.3 mph3.7 kmh 30.38 in1028.8 mb - 0.00 in0.0 mm 0.00 in0.0 mm
09:50 PM -2.7°F-19.3°C -6.6°F-21.4°C 83% 1.2 mph N1.9 kmh N 1.2 mph1.9 kmh 30.39 in1029.1 mb - 0.00 in0.0 mm 0.00 in0.0 mm
10:00 PM -3.1°F-19.5°C -6.9°F-21.6°C 83% 1.2 mph N1.9 kmh N 2.3 mph3.7 kmh 30.38 in1028.8 mb - 0.00 in0.0 mm 0.00 in0.0 mm
10:10 PM -3.4°F-19.7°C -7.2°F-21.8°C 83% 1.2 mph N1.9 kmh N 2.3 mph3.7 kmh 30.38 in1028.8 mb - 0.00 in0.0 mm 0.00 in0.0 mm
10:20 PM -3.6°F-19.8°C -7.2°F-21.8°C 84% 1.2 mph N1.9 kmh N 2.3 mph3.7 kmh 30.39 in1029.1 mb - 0.00 in0.0 mm 0.00 in0.0 mm
10:30 PM -3.9°F-19.9°C -7.5°F-21.9°C 84% 1.2 mph N1.9 kmh N 2.3 mph3.7 kmh 30.38 in1028.8 mb - 0.00 in0.0 mm 0.00 in0.0 mm
10:40 PM -3.9°F-19.9°C -7.3°F-21.8°C 85% 1.2 mph N1.9 kmh N 2.3 mph3.7 kmh 30.38 in1028.8 mb - 0.00 in0.0 mm 0.00 in0.0 mm
10:50 PM -3.8°F-19.9°C -7.1°F-21.7°C 85% Calm Calm 1.2 mph1.9 kmh 30.38 in1028.8 mb - 0.00 in0.0 mm 0.00 in0.0 mm
11:00 PM -3.4°F-19.7°C -6.5°F-21.4°C 86% Calm Calm 2.3 mph3.7 kmh 30.38 in1028.8 mb - 0.00 in0.0 mm 0.00 in0.0 mm
11:10 PM -2.9°F-19.4°C -5.8°F-21.0°C 87% 1.2 mph N1.9 kmh N 2.3 mph3.7 kmh 30.39 in1029.1 mb - 0.00 in0.0 mm 0.00 in0.0 mm
11:20 PM -2.3°F-19.1°C -5.0°F-20.6°C 88% 1.2 mph N1.9 kmh N 1.2 mph1.9 kmh 30.39 in1029.1 mb - 0.00 in0.0 mm 0.00 in0.0 mm
11:30 PM -1.8°F-18.8°C -4.5°F-20.3°C 88% 1.2 mph N1.9 kmh N 1.2 mph1.9 kmh 30.38 in1028.8 mb - 0.00 in0.0 mm 0.00 in0.0 mm
11:40 PM -1.3°F-18.5°C -4.0°F-20.0°C 88% Calm Calm 1.2 mph1.9 kmh 30.38 in1028.8 mb - 0.00 in0.0 mm 0.00 in0.0 mm
11:50 PM -0.5°F-18.1°C -3.0°F-19.4°C 89% Calm Calm -- 30.37 in1028.4 mb - 0.00 in0.0 mm 0.00 in0.0 mm